Main page
METAR-TAF:

METAR-TAF

Airports :

St. Moritz, Switzerland

Samedan Airport

latitude: 46-32-03N, longitude: 9-53-03E, elevation: 1707 m

Current weather observation

The report was made 20 minutes ago, at 22:20 UTC
Wind 2 kt from variable directions
Temperature 9°C
Humidity 61%
Pressure 1025 hPa
Visibility 10 km or more
Broken clouds at a height of 5000 ft
Scattered clouds at a height of 7000 ft

METAR: LSZS 232220Z AUTO VRB02KT 9999 BKN050 SCT070 09/02 Q1025

Time: 00:40 (22:40 UTC)

Forecast

The report was made 8 hours and 15 minutes ago, at 14:25 UTC
Forecast valid from 23 at 15 UTC to 23 at 24 UTC
Wind 12 kt from the West/Northwest
Visibility 10 km or more
Few clouds at a height of 8000 ft
Probability 30% :
Temporary
from 23 at 18 UTC to 23 at 22 UTC
Few clouds at a height of 6000 ft, Towering cumulus.
rain showers
Becoming
from 23 at 19 UTC to 23 at 21 UTC
Wind 3 kt from variable directions

TAF: LSZS 231425Z 2315/2324 29012KT 9999 FEW080 TX17/2315Z PROB30 TEMPO 2318/2322 SHRA FEW060TCU BECMG 2319/2321 VRB03KT

Weather observations and forecasts of more than 4000 airports (METAR and TAF reports).

The available stations are represented by yellow and red dots on the map.

Hover mouse over dot to see the name of the station.

Then click to see weather observations and forecasts.

To change the map : click on the green buttons with a black cross to zoom in, on the green button with a dash to zoom out, or on the green arrows for adjacent maps.


METAR-TAF: